Time;durP1;ratioP1;P1;durP2;ratioP2;P2;SDS_P1;SDS_P2;PMS_P1;PMS_P2;Temp;Humidity;BMP_temperature;BMP_pressure;BME280_temperature;BME280_humidity;BME280_pressure;Samples;Min_cycle;Max_cycle;Signal;HPM_P1;HPM_P2
2021/05/04 00:01:32;;;;;;;9.03;8.13;;;5.10;72.90;;;;;;5071280;28;20519;-84
2021/05/04 00:04:11;;;;;;;8.40;7.60;;;5.00;72.40;;;;;;5062443;28;20501;-84
2021/05/04 00:06:44;;;;;;;10.60;9.10;;;5.10;73.20;;;;;;5067043;28;20496;-84
2021/05/04 00:09:18;;;;;;;9.57;8.60;;;5.10;72.80;;;;;;5066428;28;20514;-84
2021/05/04 00:11:59;;;;;;;10.07;9.07;;;5.20;72.40;;;;;;5071350;28;20442;-84
2021/05/04 00:14:35;;;;;;;8.90;7.80;;;5.20;72.60;;;;;;5066745;28;20449;-85
2021/05/04 00:17:10;;;;;;;8.90;8.00;;;5.10;72.90;;;;;;5071748;28;20874;-83
2021/05/04 00:19:46;;;;;;;8.80;8.00;;;5.30;72.70;;;;;;5062517;28;21117;-84
2021/05/04 00:22:21;;;;;;;9.47;8.47;;;5.20;72.40;;;;;;5072943;28;20433;-83
2021/05/04 00:25:00;;;;;;;8.50;7.60;;;5.20;72.40;;;;;;5071311;28;20498;-84
2021/05/04 00:27:46;;;;;;;11.00;8.87;;;5.30;72.30;;;;;;5068765;28;20459;-85
2021/05/04 00:30:27;;;;;;;8.40;7.60;;;5.30;72.30;;;;;;5066795;28;20452;-84
2021/05/04 00:32:59;;;;;;;8.37;7.57;;;5.40;72.20;;;;;;5070446;28;20482;-84
2021/05/04 00:35:35;;;;;;;8.30;7.50;;;5.40;71.90;;;;;;5068426;28;20450;-84
2021/05/04 00:38:10;;;;;;;9.90;8.27;;;5.40;71.90;;;;;;5068499;28;20454;-84
2021/05/04 00:40:45;;;;;;;8.57;7.57;;;5.40;71.90;;;;;;5073856;28;20463;-84
2021/05/04 00:43:31;;;;;;;9.13;7.97;;;5.30;72.00;;;;;;5068510;28;20452;-84
2021/05/04 00:46:06;;;;;;;9.57;7.97;;;5.40;72.10;;;;;;5069568;28;20470;-84
2021/05/04 00:48:41;;;;;;;10.17;8.37;;;5.40;72.00;;;;;;5065313;28;20450;-84
2021/05/04 00:51:16;;;;;;;9.33;8.37;;;5.40;71.90;;;;;;5058577;28;20467;-84
2021/05/04 00:53:53;;;;;;;9.83;8.83;;;5.40;72.10;;;;;;5059194;28;20497;-84
2021/05/04 00:56:29;;;;;;;8.50;7.63;;;5.50;71.90;;;;;;5068625;28;20446;-84
2021/05/04 00:59:06;;;;;;;9.43;7.87;;;5.50;71.80;;;;;;5054600;28;20511;-84
2021/05/04 01:01:42;;;;;;;9.00;8.10;;;5.50;71.80;;;;;;5059966;28;20482;-85
2021/05/04 01:04:25;;;;;;;8.83;7.93;;;5.50;71.70;;;;;;5071921;28;20491;-85
2021/05/04 01:07:19;;;;;;;9.00;8.20;;;5.60;71.60;;;;;;5074732;28;20479;-84
2021/05/04 01:09:54;;;;;;;9.20;8.30;;;5.70;71.20;;;;;;5077720;28;20845;-84
2021/05/04 01:12:39;;;;;;;9.63;8.67;;;5.80;71.00;;;;;;5075330;28;20454;-84
2021/05/04 01:15:29;;;;;;;11.17;7.93;;;5.90;70.50;;;;;;5073412;28;20542;-84
2021/05/04 01:18:03;;;;;;;6.87;6.10;;;6.00;69.90;;;;;;5064883;28;20457;-84
2021/05/04 01:20:39;;;;;;;7.73;6.93;;;6.10;69.40;;;;;;5068485;28;21254;-84
2021/05/04 01:23:15;;;;;;;8.03;7.10;;;6.20;69.00;;;;;;5068892;28;20545;-85
2021/05/04 01:25:55;;;;;;;8.47;7.57;;;6.20;68.80;;;;;;5074329;28;20528;-84
2021/05/04 01:28:29;;;;;;;8.00;7.20;;;6.30;68.40;;;;;;5071234;28;20534;-84
2021/05/04 01:31:09;;;;;;;7.53;6.83;;;6.40;67.80;;;;;;5069781;28;21141;-84
2021/05/04 01:33:43;;;;;;;7.70;7.00;;;6.50;67.40;;;;;;5071205;28;20460;-83
2021/05/04 01:36:19;;;;;;;10.87;6.87;;;6.60;67.20;;;;;;5072991;28;20516;-83
2021/05/04 01:39:00;;;;;;;7.80;7.00;;;6.60;66.90;;;;;;5063953;28;20463;-83
2021/05/04 01:41:32;;;;;;;7.57;6.87;;;6.50;66.80;;;;;;5074792;28;20440;-84
2021/05/04 01:44:08;;;;;;;8.13;7.20;;;6.50;66.70;;;;;;5080755;28;20445;-84
2021/05/04 01:46:48;;;;;;;12.03;7.60;;;6.50;66.70;;;;;;5072278;28;20447;-84
2021/05/04 01:49:25;;;;;;;7.23;6.57;;;6.50;66.50;;;;;;5062070;28;20436;-84
2021/05/04 01:52:00;;;;;;;6.80;6.20;;;6.50;66.50;;;;;;5067368;28;20467;-84
2021/05/04 01:54:36;;;;;;;7.80;7.00;;;6.40;66.70;;;;;;5068228;28;20464;-85
2021/05/04 01:57:06;;;;;;;8.03;7.13;;;6.30;66.60;;;;;;5069266;28;20482;-84
2021/05/04 01:59:46;;;;;;;8.13;7.33;;;6.30;66.80;;;;;;5077150;28;20469;-84
2021/05/04 02:02:19;;;;;;;8.63;7.00;;;6.20;66.70;;;;;;5079320;28;20456;-83
2021/05/04 02:05:00;;;;;;;7.43;6.77;;;6.10;66.70;;;;;;5085863;28;20523;-84
2021/05/04 02:07:40;;;;;;;9.00;8.20;;;6.10;67.00;;;;;;5067148;28;20466;-85
2021/05/04 02:10:16;;;;;;;8.17;7.40;;;6.20;66.90;;;;;;5077946;28;20449;-84
2021/05/04 02:12:48;;;;;;;8.80;6.83;;;6.10;66.70;;;;;;5072559;28;20854;-85
2021/05/04 02:15:23;;;;;;;8.60;7.80;;;6.30;66.60;;;;;;5090177;28;20451;-83
2021/05/04 02:18:03;;;;;;;7.63;6.83;;;6.40;66.20;;;;;;5079632;28;20456;-84
2021/05/04 02:20:38;;;;;;;8.13;6.90;;;6.50;65.80;;;;;;5069740;28;21015;-85
2021/05/04 02:23:13;;;;;;;9.50;7.37;;;6.60;65.60;;;;;;5065375;28;20452;-84
2021/05/04 02:25:54;;;;;;;7.60;6.90;;;6.70;65.40;;;;;;5072753;28;20490;-84
2021/05/04 02:28:29;;;;;;;8.03;7.20;;;6.90;65.20;;;;;;5091158;28;20458;-84
2021/05/04 02:31:09;;;;;;;8.43;6.70;;;6.70;65.00;;;;;;5076924;28;20456;-84
2021/05/04 02:33:58;;;;;;;7.40;6.80;;;6.60;65.00;;;;;;5075523;28;20459;-83
2021/05/04 02:36:33;;;;;;;7.67;7.07;;;6.60;65.00;;;;;;5069962;28;20554;-83
2021/05/04 02:39:09;;;;;;;8.33;7.53;;;6.40;65.10;;;;;;5062209;28;20475;-84
2021/05/04 02:41:50;;;;;;;8.67;6.90;;;6.30;65.40;;;;;;5068745;28;20460;-84
2021/05/04 02:44:30;;;;;;;7.50;6.80;;;6.20;65.60;;;;;;5068882;28;20468;-85
2021/05/04 02:47:07;;;;;;;8.23;7.53;;;6.20;65.80;;;;;;5068106;28;20459;-85
2021/05/04 02:52:28;;;;;;;7.27;6.57;;;6.00;66.30;;;;;;5075934;28;20967;-85
2021/05/04 02:55:03;;;;;;;8.40;7.07;;;6.00;66.40;;;;;;5077769;28;20522;-84
2021/05/04 02:57:45;;;;;;;10.00;7.80;;;5.90;66.30;;;;;;5073216;28;20482;-84
2021/05/04 03:00:20;;;;;;;8.70;7.67;;;5.90;66.40;;;;;;5080017;28;20453;-83
2021/05/04 03:03:00;;;;;;;7.40;6.70;;;5.90;66.30;;;;;;5075147;28;20984;-84
2021/05/04 03:05:40;;;;;;;7.90;7.20;;;5.80;66.60;;;;;;5072707;28;20548;-84
2021/05/04 03:08:18;;;;;;;8.57;7.77;;;5.80;66.80;;;;;;5077947;28;20445;-83
2021/05/04 03:10:53;;;;;;;8.37;7.27;;;5.80;66.90;;;;;;5071843;28;20563;-84
2021/05/04 03:13:35;;;;;;;7.43;6.73;;;5.70;66.80;;;;;;5072603;28;20447;-84
2021/05/04 03:16:10;;;;;;;8.50;7.63;;;5.70;67.10;;;;;;5065766;28;20542;-84
2021/05/04 03:18:45;;;;;;;7.40;6.70;;;5.70;67.10;;;;;;5072436;28;20471;-84
2021/05/04 03:21:20;;;;;;;7.60;6.90;;;5.60;67.20;;;;;;5065218;28;20447;-85
2021/05/04 03:24:00;;;;;;;8.67;7.87;;;5.60;67.10;;;;;;5072843;28;20923;-84
2021/05/04 03:26:40;;;;;;;8.00;7.07;;;5.60;67.40;;;;;;5077305;28;20524;-84
2021/05/04 03:29:16;;;;;;;8.60;7.80;;;5.60;67.80;;;;;;5071831;28;20475;-84
2021/05/04 03:31:56;;;;;;;8.60;7.80;;;5.50;68.20;;;;;;5066042;28;20495;-84
2021/05/04 03:34:35;;;;;;;10.13;8.20;;;5.40;68.10;;;;;;5067448;28;20466;-84
2021/05/04 03:37:10;;;;;;;8.93;7.80;;;5.40;68.10;;;;;;5084975;28;20601;-84
2021/05/04 03:39:45;;;;;;;8.70;7.90;;;5.50;68.80;;;;;;5081127;28;20459;-83
2021/05/04 03:42:20;;;;;;;9.87;8.50;;;5.40;68.60;;;;;;5067015;28;20461;-84
2021/05/04 03:45:06;;;;;;;9.50;7.63;;;5.30;68.50;;;;;;5068737;28;20472;-84
2021/05/04 03:50:32;;;;;;;8.00;7.30;;;5.30;69.40;;;;;;5065000;28;20442;-84
2021/05/04 03:53:08;;;;;;;8.80;7.90;;;5.30;69.20;;;;;;5062018;28;20455;-84
2021/05/04 03:55:42;;;;;;;9.03;8.13;;;5.30;69.60;;;;;;5068873;28;20455;-84
2021/05/04 03:58:23;;;;;;;9.27;8.30;;;5.30;69.50;;;;;;5072023;28;20462;-85
2021/05/04 04:01:00;;;;;;;9.40;7.70;;;5.30;69.80;;;;;;5071603;28;20449;-83
2021/05/04 04:03:34;;;;;;;8.70;7.90;;;5.30;69.90;;;;;;5063322;28;21231;-83
2021/05/04 04:06:07;;;;;;;11.93;8.17;;;5.50;69.40;;;;;;5086868;28;20471;-83
2021/05/04 04:08:45;;;;;;;8.73;7.87;;;5.50;69.60;;;;;;5085701;28;20427;-83
2021/05/04 04:11:25;;;;;;;9.10;7.50;;;5.60;69.70;;;;;;5072139;28;20529;-84
2021/05/04 04:14:05;;;;;;;8.13;7.33;;;5.70;69.20;;;;;;5072435;28;20462;-84
2021/05/04 04:16:46;;;;;;;9.30;8.00;;;5.90;69.00;;;;;;5072355;28;20454;-83
2021/05/04 04:19:21;;;;;;;9.70;8.10;;;6.00;68.60;;;;;;5077671;28;20529;-83
2021/05/04 04:24:42;;;;;;;8.77;7.60;;;6.50;67.80;;;;;;5067578;28;20501;-83
2021/05/04 04:27:17;;;;;;;8.40;6.90;;;7.30;66.90;;;;;;5074967;28;20451;-83
2021/05/04 04:29:56;;;;;;;8.03;7.23;;;8.60;65.70;;;;;;5066771;28;20441;-84
2021/05/04 04:32:37;;;;;;;7.93;7.07;;;10.00;61.20;;;;;;5067507;28;20445;-85
2021/05/04 04:35:13;;;;;;;8.07;7.27;;;10.20;58.40;;;;;;5070058;28;20817;-84
2021/05/04 04:38:04;;;;;;;13.10;7.60;;;10.40;57.70;;;;;;5073193;28;20488;-83
2021/05/04 04:40:39;;;;;;;13.30;7.77;;;11.20;55.30;;;;;;5062738;28;20509;-84
2021/05/04 04:43:15;;;;;;;6.87;6.27;;;10.70;54.50;;;;;;5067035;28;20458;-84
2021/05/04 04:45:58;;;;;;;7.13;6.47;;;10.30;54.90;;;;;;5062204;28;21047;-84
2021/05/04 04:48:40;;;;;;;7.03;6.40;;;12.30;54.50;;;;;;5074939;28;20461;-84
2021/05/04 04:51:15;;;;;;;7.40;6.73;;;12.40;54.30;;;;;;5075811;28;20506;-84
2021/05/04 04:53:55;;;;;;;7.77;7.10;;;13.60;52.30;;;;;;5070660;28;20974;-84
2021/05/04 04:56:29;;;;;;;7.40;6.80;;;14.00;51.60;;;;;;5070247;28;20453;-85
2021/05/04 04:59:05;;;;;;;7.53;6.73;;;14.90;50.00;;;;;;5065047;28;20463;-84
2021/05/04 05:01:40;;;;;;;8.67;7.87;;;15.10;48.90;;;;;;5064265;28;20547;-85
2021/05/04 05:04:16;;;;;;;10.07;9.03;;;14.70;48.30;;;;;;5066589;28;20975;-85
2021/05/04 05:06:51;;;;;;;6.70;6.20;;;14.70;48.50;;;;;;5066278;28;20460;-84
2021/05/04 05:09:32;;;;;;;7.53;6.83;;;14.60;47.70;;;;;;5065079;28;20437;-84
2021/05/04 05:12:09;;;;;;;9.70;7.30;;;14.20;48.20;;;;;;5063287;28;20457;-85
2021/05/04 05:14:46;;;;;;;9.70;7.17;;;14.80;48.70;;;;;;5067245;28;20522;-84
2021/05/04 05:17:22;;;;;;;10.13;6.83;;;14.40;48.00;;;;;;5064672;28;20551;-85
2021/05/04 05:19:56;;;;;;;7.63;6.93;;;15.40;48.10;;;;;;5065294;28;20468;-85
2021/05/04 05:22:37;;;;;;;13.23;7.70;;;15.00;47.40;;;;;;5070981;28;20453;-84
2021/05/04 05:25:13;;;;;;;7.87;7.13;;;14.60;47.30;;;;;;5072131;28;20819;-86
2021/05/04 05:27:47;;;;;;;7.03;6.40;;;13.50;47.30;;;;;;5076086;28;20496;-86
2021/05/04 05:30:27;;;;;;;7.23;6.53;;;12.70;47.90;;;;;;5072604;28;20548;-85
2021/05/04 05:33:02;;;;;;;7.50;6.80;;;11.90;48.20;;;;;;5068303;28;22764;-84
2021/05/04 05:35:44;;;;;;;7.33;6.73;;;11.80;48.40;;;;;;5060666;28;20904;-84
2021/05/04 05:38:19;;;;;;;7.17;6.57;;;11.80;49.20;;;;;;5074197;28;20457;-83
2021/05/04 05:40:57;;;;;;;7.77;6.70;;;11.60;49.10;;;;;;5077581;28;20449;-83
2021/05/04 05:43:32;;;;;;;7.17;6.57;;;11.40;49.00;;;;;;5072995;28;20454;-83
2021/05/04 05:46:15;;;;;;;7.23;6.60;;;11.30;49.70;;;;;;5074098;28;20476;-85
2021/05/04 05:48:53;;;;;;;7.43;6.73;;;10.80;49.40;;;;;;5072578;28;20457;-81
2021/05/04 05:51:29;;;;;;;9.43;6.43;;;10.70;49.80;;;;;;5075586;28;21006;-83
2021/05/04 05:54:09;;;;;;;8.33;6.40;;;10.60;50.40;;;;;;5069416;28;20633;-84
2021/05/04 05:56:45;;;;;;;7.17;6.47;;;10.60;50.50;;;;;;5069026;28;20506;-83
2021/05/04 05:59:27;;;;;;;6.57;5.87;;;10.60;51.00;;;;;;5067368;28;20812;-82
2021/05/04 06:02:04;;;;;;;7.43;6.20;;;;;;;;;;5070581;28;20457;-84
2021/05/04 06:04:44;;;;;;;7.17;6.57;;;10.40;50.30;;;;;;5065391;28;20540;-85
2021/05/04 06:07:20;;;;;;;7.40;6.00;;;10.50;50.40;;;;;;5068479;28;20530;-83
2021/05/04 06:09:55;;;;;;;6.63;6.07;;;10.40;50.30;;;;;;5066441;28;20551;-84
2021/05/04 06:12:35;;;;;;;6.77;6.07;;;10.50;50.50;;;;;;5068316;28;20487;-84
2021/05/04 06:15:11;;;;;;;7.03;6.33;;;10.70;50.20;;;;;;5065958;28;20454;-84
2021/05/04 06:17:50;;;;;;;7.13;6.33;;;10.60;50.50;;;;;;5074253;28;20470;-84
2021/05/04 06:20:25;;;;;;;9.00;5.57;;;10.70;50.20;;;;;;5069450;28;20481;-85
2021/05/04 06:23:10;;;;;;;6.17;5.57;;;10.80;50.50;;;;;;5074145;28;20449;-85
2021/05/04 06:25:45;;;;;;;6.53;5.83;;;10.90;50.20;;;;;;5071064;28;20492;-85
2021/05/04 06:28:31;;;;;;;9.80;5.97;;;11.10;50.00;;;;;;5072787;28;20457;-85
2021/05/04 06:31:13;;;;;;;6.50;5.90;;;11.10;50.00;;;;;;5075895;28;20461;-85
2021/05/04 06:34:12;;;;;;;11.07;7.20;;;11.30;49.90;;;;;;5079170;28;21239;-86
2021/05/04 06:36:48;;;;;;;7.17;5.87;;;11.30;50.10;;;;;;5074896;28;20461;-86
2021/05/04 06:42:17;;;;;;;6.47;5.97;;;11.40;50.20;;;;;;5073362;28;20450;-84
2021/05/04 06:44:53;;;;;;;5.73;5.23;;;11.30;50.10;;;;;;5075252;28;20980;-85
2021/05/04 06:47:28;;;;;;;19.67;7.73;;;11.30;50.00;;;;;;5083040;28;20460;-84
2021/05/04 06:50:08;;;;;;;8.00;6.03;;;11.40;50.50;;;;;;5075414;28;20835;-84
2021/05/04 06:52:44;;;;;;;5.83;5.33;;;11.60;50.40;;;;;;5082057;28;20461;-85
2021/05/04 06:55:24;;;;;;;6.63;6.03;;;11.60;50.20;;;;;;5076948;28;21027;-83
2021/05/04 06:58:00;;;;;;;8.33;5.33;;;11.70;50.10;;;;;;5070825;28;20442;-85
2021/05/04 07:03:33;;;;;;;6.30;5.40;;;11.60;50.50;;;;;;5085224;28;20195;-85
2021/05/04 07:06:09;;;;;;;5.80;5.20;;;11.70;50.50;;;;;;5087664;28;20532;-80
2021/05/04 07:08:44;;;;;;;5.87;5.37;;;11.80;50.10;;;;;;5088100;28;20437;-82
2021/05/04 07:11:25;;;;;;;7.40;5.80;;;11.80;49.90;;;;;;5091587;28;20444;-81
2021/05/04 07:14:09;;;;;;;5.60;4.90;;;11.90;50.00;;;;;;5079644;28;20471;-80
2021/05/04 07:16:45;;;;;;;6.83;5.20;;;12.10;49.70;;;;;;5084565;28;20462;-79
2021/05/04 07:23:00;;;;;;;4.77;4.37;;;12.40;49.40;;;;;;5093176;28;20487;-83
2021/05/04 07:25:54;;;;;;;7.80;5.67;;;12.40;49.10;;;;;;5084720;28;21038;-80
2021/05/04 07:28:48;;;;;;;5.57;5.17;;;12.60;49.20;;;;;;5083955;28;20456;-82
2021/05/04 07:42:34;;;;;;;6.50;4.80;;;12.40;48.70;;;;;;4990331;28;20473;-81
2021/05/04 07:49:47;;;;;;;5.53;5.13;;;12.70;48.80;;;;;;4991299;28;20486;-87
2021/05/04 07:52:44;;;;;;;5.13;4.72;;;12.90;48.60;;;;;;5038408;28;20476;-81
2021/05/04 07:55:26;;;;;;;7.20;4.33;;;13.30;48.10;;;;;;5079184;28;20248;-83
2021/05/04 07:57:59;;;;;;;4.50;4.20;;;13.30;47.90;;;;;;5074204;28;20446;-84
2021/05/04 08:00:34;;;;;;;9.40;4.50;;;13.50;48.00;;;;;;5072739;28;20469;-84
2021/05/04 08:06:25;;;;;;;4.87;4.47;;;13.80;47.50;;;;;;5074495;28;20476;-87
2021/05/04 08:26:00;;;;;;;4.93;4.23;;;13.50;46.40;;;;;;5073366;28;20486;-86
2021/05/04 08:28:41;;;;;;;5.00;4.50;;;13.50;46.50;;;;;;5080355;28;20458;-88
2021/05/04 08:31:25;;;;;;;8.10;4.50;;;13.50;46.30;;;;;;5072939;28;20461;-89
2021/05/04 08:42:25;;;;;;;9.65;5.45;;;13.70;46.50;;;;;;5070658;28;20463;-84
2021/05/04 08:45:04;;;;;;;6.07;4.67;;;14.00;46.20;;;;;;5068903;28;20288;-81
2021/05/04 08:47:40;;;;;;;5.10;4.23;;;14.20;46.00;;;;;;5071904;28;20793;-81
2021/05/04 08:50:20;;;;;;;5.10;3.83;;;14.10;46.00;;;;;;5076986;28;20541;-80
2021/05/04 08:52:55;;;;;;;8.70;4.10;;;13.70;45.70;;;;;;5069903;28;20454;-86
2021/05/04 08:55:31;;;;;;;4.37;3.97;;;14.30;46.30;;;;;;5069795;28;20457;-83
2021/05/04 08:58:03;;;;;;;6.03;4.30;;;14.40;46.00;;;;;;5072799;28;20492;-83
2021/05/04 09:00:44;;;;;;;5.18;4.28;;;14.60;46.00;;;;;;5082329;28;20440;-83
2021/05/04 09:06:09;;;;;;;4.50;4.10;;;15.00;45.70;;;;;;5073235;28;20475;-84
2021/05/04 09:08:49;;;;;;;8.50;5.07;;;15.00;45.60;;;;;;5066509;28;20465;-82
2021/05/04 09:14:40;;;;;;;5.73;4.30;;;15.10;45.60;;;;;;5063211;28;20449;-80
2021/05/04 09:17:36;;;;;;;4.40;4.00;;;15.10;45.50;;;;;;5067258;28;20963;-83
2021/05/04 09:20:23;;;;;;;4.20;3.80;;;15.40;45.40;;;;;;5064359;28;20446;-80
2021/05/04 09:23:11;;;;;;;5.43;4.33;;;15.50;45.40;;;;;;5080046;28;20450;-85
2021/05/04 09:34:57;;;;;;;5.40;4.00;;;16.30;44.80;;;;;;5026787;28;20586;-85
2021/05/04 09:37:39;;;;;;;5.10;4.00;;;16.70;44.80;;;;;;5035720;28;20579;-82
2021/05/04 09:40:36;;;;;;;8.10;4.50;;;16.90;44.60;;;;;;5030880;28;22874;-83
2021/05/04 09:43:23;;;;;;;5.00;3.50;;;17.30;44.50;;;;;;5036381;28;20805;-83
2021/05/04 09:45:56;;;;;;;4.43;4.07;;;17.20;44.40;;;;;;5032507;28;20473;-84
2021/05/04 10:02:45;;;;;;;3.70;3.40;;;17.70;44.00;;;;;;5008956;28;20553;-90
2021/05/04 10:11:03;;;;;;;12.60;3.10;;;17.90;43.90;;;;;;5045498;28;20287;-88
2021/05/04 10:13:41;;;;;;;3.27;2.50;;;17.70;42.10;;;;;;5045409;28;20566;-87
2021/05/04 10:19:13;;;;;;;5.03;2.77;;;18.30;41.70;;;;;;5051653;28;20527;-88
2021/05/04 10:21:47;;;;;;;7.90;3.07;;;18.10;40.70;;;;;;5048296;28;20452;-88
2021/05/04 10:24:22;;;;;;;11.90;3.37;;;17.90;40.50;;;;;;5038837;28;20456;-88
2021/05/04 10:30:01;;;;;;;9.33;2.80;;;18.30;40.80;;;;;;5020693;28;20464;-88
2021/05/04 10:33:09;;;;;;;2.63;2.40;;;18.20;40.50;;;;;;5013834;28;20886;-88
2021/05/04 10:35:52;;;;;;;2.87;2.20;;;18.60;40.80;;;;;;5018383;28;20452;-87
2021/05/04 10:38:27;;;;;;;2.30;2.20;;;18.40;40.80;;;;;;5008728;28;21024;-88
2021/05/04 10:41:22;;;;;;;2.70;2.50;;;18.50;40.40;;;;;;5024386;28;20509;-90
2021/05/04 10:44:21;;;;;;;2.77;2.53;;;18.20;40.10;;;;;;5017005;28;20465;-87
2021/05/04 10:50:15;;;;;;;2.63;2.43;;;18.20;40.30;;;;;;5012129;28;20452;-88
2021/05/04 10:56:20;;;;;;;8.40;2.70;;;17.90;40.40;;;;;;5017189;28;20453;-88
2021/05/04 10:58:56;;;;;;;15.73;3.30;;;18.40;40.50;;;;;;4997338;28;20458;-88
2021/05/04 11:01:36;;;;;;;1.80;1.70;;;18.70;40.60;;;;;;5029485;28;20457;-90
2021/05/04 11:04:45;;;;;;;2.37;2.17;;;18.80;40.50;;;;;;5027626;28;20465;-90
2021/05/04 11:08:03;;;;;;;3.60;2.70;;;18.60;40.30;;;;;;5023411;28;20477;-87
2021/05/04 11:10:44;;;;;;;6.73;2.63;;;18.20;40.30;;;;;;5028889;28;20475;-88
2021/05/04 11:13:49;;;;;;;5.43;1.90;;;18.20;39.20;;;;;;5022546;28;20461;-85
2021/05/04 11:16:41;;;;;;;8.87;2.50;;;17.90;38.40;;;;;;5014519;28;20447;-85
2021/05/04 11:19:18;;;;;;;5.00;1.80;;;18.00;38.00;;;;;;5021474;28;20524;-88
2021/05/04 11:22:00;;;;;;;3.53;2.10;;;17.90;37.80;;;;;;5020863;28;20456;-84
2021/05/04 11:24:43;;;;;;;2.30;1.90;;;17.80;37.60;;;;;;5026346;28;20987;-84
2021/05/04 11:27:29;;;;;;;4.03;1.97;;;18.00;37.40;;;;;;5021017;28;20520;-82
2021/05/04 11:30:06;;;;;;;4.20;1.90;;;17.50;36.70;;;;;;5026140;28;20530;-81
2021/05/04 11:33:25;;;;;;;5.10;1.90;;;17.50;36.80;;;;;;5028269;28;20524;-88
2021/05/04 11:36:07;;;;;;;9.70;2.17;;;17.40;36.70;;;;;;5017998;28;20466;-86
2021/05/04 11:38:39;;;;;;;4.90;1.90;;;17.50;36.50;;;;;;5027834;28;20443;-83
2021/05/04 11:41:15;;;;;;;3.47;1.70;;;17.50;36.90;;;;;;5004224;28;20505;-86
2021/05/04 11:43:51;;;;;;;4.50;2.10;;;17.20;36.60;;;;;;5021840;28;20548;-83
2021/05/04 11:46:33;;;;;;;4.13;2.00;;;17.30;36.60;;;;;;5027522;28;20539;-82
2021/05/04 11:49:09;;;;;;;2.33;2.03;;;17.30;36.60;;;;;;5017374;28;20482;-82
2021/05/04 11:51:43;;;;;;;2.50;1.60;;;17.20;36.40;;;;;;5021126;28;20199;-84
2021/05/04 11:54:20;;;;;;;6.30;1.70;;;17.30;36.50;;;;;;5026589;28;20453;-88
2021/05/04 11:56:57;;;;;;;3.75;2.08;;;17.20;36.30;;;;;;5023615;28;20496;-86
2021/05/04 11:59:38;;;;;;;2.07;1.93;;;17.00;35.90;;;;;;5018270;28;20198;-87
2021/05/04 12:02:29;;;;;;;3.00;2.10;;;17.20;36.10;;;;;;5033328;28;20464;-86
2021/05/04 12:05:06;;;;;;;3.30;2.20;;;17.20;36.20;;;;;;5011790;28;20514;-84
2021/05/04 12:07:46;;;;;;;3.00;1.80;;;17.30;36.30;;;;;;5023732;28;20468;-84
2021/05/04 12:10:32;;;;;;;2.70;1.93;;;17.40;36.60;;;;;;5019819;28;20484;-85
2021/05/04 12:29:39;;;;;;;2.57;2.20;;;16.70;36.90;;;;;;5073100;28;20987;-87
2021/05/04 12:32:14;;;;;;;2.60;2.10;;;16.70;36.80;;;;;;5069519;28;20454;-86
2021/05/04 12:34:50;;;;;;;3.40;2.10;;;16.80;37.10;;;;;;5071364;28;20489;-85
2021/05/04 12:37:39;;;;;;;3.13;2.27;;;16.90;37.00;;;;;;5080097;28;20454;-87
2021/05/04 12:40:27;;;;;;;3.33;2.00;;;16.90;37.10;;;;;;5071280;28;20529;-86
2021/05/04 12:43:33;;;;;;;2.90;2.60;;;17.30;37.40;;;;;;5076193;28;20453;-87
2021/05/04 12:46:17;;;;;;;3.63;2.90;;;16.70;39.50;;;;;;5083465;28;20465;-85
2021/05/04 12:48:54;;;;;;;2.87;2.40;;;16.20;41.00;;;;;;5078932;28;21005;-85
2021/05/04 12:51:35;;;;;;;3.43;2.20;;;16.00;41.90;;;;;;5081830;28;20471;-88
2021/05/04 12:54:21;;;;;;;3.83;2.70;;;15.50;42.00;;;;;;5076616;28;20465;-86
2021/05/04 12:56:58;;;;;;;3.50;2.40;;;15.40;42.50;;;;;;5087550;28;20445;-87
2021/05/04 12:59:42;;;;;;;3.83;3.20;;;15.30;42.60;;;;;;5086977;28;20554;-85
2021/05/04 13:02:26;;;;;;;3.43;2.67;;;15.20;42.70;;;;;;5078419;28;20464;-84
2021/05/04 13:05:04;;;;;;;2.83;2.60;;;15.20;42.80;;;;;;5080380;28;20644;-85
2021/05/04 13:07:43;;;;;;;4.33;2.93;;;15.00;43.00;;;;;;5062769;28;21014;-85
2021/05/04 13:10:26;;;;;;;3.47;2.60;;;15.00;43.10;;;;;;5078534;28;20464;-83
2021/05/04 13:28:33;;;;;;;4.18;3.00;;;14.30;43.20;;;;;;5051340;28;20505;-83
2021/05/04 13:31:13;;;;;;;3.50;2.70;;;14.30;43.10;;;;;;5066048;28;20212;-85
2021/05/04 13:33:51;;;;;;;6.07;2.70;;;14.40;43.50;;;;;;5072997;28;20451;-85
2021/05/04 13:36:33;;;;;;;2.73;2.53;;;14.50;43.40;;;;;;5064344;28;20468;-87
2021/05/04 13:39:20;;;;;;;3.60;2.67;;;14.30;43.10;;;;;;5069452;28;22678;-86
2021/05/04 13:48:04;;;;;;;6.30;2.67;;;14.20;43.20;;;;;;5008702;28;20547;-86
2021/05/04 13:50:44;;;;;;;3.57;2.40;;;13.90;43.10;;;;;;5069231;28;20456;-86
2021/05/04 13:53:25;;;;;;;3.03;2.60;;;13.90;43.10;;;;;;5070240;28;20450;-88
2021/05/04 13:56:04;;;;;;;2.47;2.27;;;13.90;43.20;;;;;;5073440;28;20475;-85
2021/05/04 13:58:37;;;;;;;2.70;2.20;;;13.70;43.20;;;;;;5074285;28;20456;-83
2021/05/04 14:01:17;;;;;;;3.13;2.83;;;13.80;43.50;;;;;;5070417;28;20466;-84
2021/05/04 14:04:03;;;;;;;2.60;2.40;;;13.80;43.70;;;;;;5076998;28;20446;-85
2021/05/04 14:06:44;;;;;;;4.20;2.63;;;13.80;44.20;;;;;;5070892;28;20445;-80
2021/05/04 14:26:39;;;;;;;4.67;2.60;;;13.70;45.00;;;;;;5054174;28;20250;-86
2021/05/04 14:29:20;;;;;;;3.83;2.50;;;14.00;45.30;;;;;;5058410;28;20857;-85
2021/05/04 14:32:00;;;;;;;2.57;2.30;;;13.70;45.20;;;;;;5057791;28;20488;-87
2021/05/04 14:34:37;;;;;;;3.60;3.10;;;13.50;46.20;;;;;;5060573;28;20459;-83
2021/05/04 14:37:16;;;;;;;4.80;2.47;;;13.60;46.50;;;;;;5062044;28;20479;-82
2021/05/04 14:40:00;;;;;;;2.90;2.37;;;13.50;47.00;;;;;;5062003;28;20450;-81
2021/05/04 14:59:43;;;;;;;3.40;2.83;;;13.30;49.20;;;;;;5056030;28;20458;-87
2021/05/04 15:02:15;;;;;;;2.77;2.47;;;13.60;49.60;;;;;;5069165;28;20462;-83
2021/05/04 15:04:58;;;;;;;2.43;2.23;;;13.60;49.00;;;;;;5068570;28;20458;-90
2021/05/04 15:07:31;;;;;;;3.45;2.45;;;13.60;52.90;;;;;;5058630;28;20448;-90
2021/05/04 15:13:50;;;;;;;3.77;2.20;;;13.70;48.90;;;;;;5061074;28;20457;-93
2021/05/04 15:22:14;;;;;;;2.50;2.30;;;14.20;48.40;;;;;;5056806;28;20589;-87
2021/05/04 15:24:59;;;;;;;2.73;2.33;;;14.30;48.30;;;;;;5064473;28;20476;-87
2021/05/04 15:27:34;;;;;;;2.88;2.58;;;14.50;48.30;;;;;;5051415;28;20467;-87
2021/05/04 15:30:10;;;;;;;2.90;2.60;;;14.30;47.50;;;;;;5059471;28;20215;-86
2021/05/04 15:32:55;;;;;;;1.90;1.80;;;13.80;48.40;;;;;;5061680;28;20450;-86
2021/05/04 15:35:35;;;;;;;2.43;2.00;;;13.90;48.50;;;;;;5065237;28;20608;-82
2021/05/04 15:38:11;;;;;;;2.27;2.07;;;13.80;48.20;;;;;;5050935;28;20462;-87
2021/05/04 15:40:48;;;;;;;2.63;1.70;;;13.70;48.50;;;;;;5057063;28;20496;-86
2021/05/04 15:43:21;;;;;;;2.90;1.80;;;;;;;;;;5057390;28;20506;-86
2021/05/04 15:46:05;;;;;;;2.73;1.93;;;13.20;48.10;;;;;;5045753;28;20519;-85
2021/05/04 15:48:48;;;;;;;4.50;2.37;;;13.30;48.70;;;;;;5047779;28;20517;-85
2021/05/04 15:51:37;;;;;;;2.50;2.30;;;13.20;48.70;;;;;;5057595;28;20467;-85
2021/05/04 15:54:32;;;;;;;3.13;2.07;;;13.30;49.00;;;;;;5054062;28;20446;-86
2021/05/04 16:08:27;;;;;;;2.50;2.13;;;13.20;50.20;;;;;;5059013;28;20481;-86
2021/05/04 16:11:07;;;;;;;3.50;2.40;;;13.30;50.20;;;;;;5049887;28;20593;-86
2021/05/04 16:13:42;;;;;;;4.10;2.10;;;13.30;50.10;;;;;;5059389;28;20544;-86
2021/05/04 16:16:20;;;;;;;1.93;1.80;;;13.30;49.80;;;;;;5065932;28;20475;-87
2021/05/04 16:18:57;;;;;;;5.20;2.40;;;13.20;50.10;;;;;;5051859;28;20497;-86
2021/05/04 16:21:52;;;;;;;2.40;2.20;;;13.20;50.50;;;;;;5056843;28;20456;-85
2021/05/04 16:24:30;;;;;;;2.30;2.10;;;13.30;50.20;;;;;;5062146;28;20446;-87
2021/05/04 16:27:17;;;;;;;2.93;2.10;;;13.40;50.40;;;;;;5068844;28;20442;-85
2021/05/04 16:30:02;;;;;;;2.40;1.87;;;13.30;50.20;;;;;;5060702;28;20521;-84
2021/05/04 16:32:36;;;;;;;2.20;1.90;;;13.20;50.40;;;;;;5060291;28;20459;-84
2021/05/04 16:35:09;;;;;;;2.70;2.00;;;13.10;50.80;;;;;;5056634;28;20479;-86
2021/05/04 16:37:45;;;;;;;2.40;2.20;;;13.00;50.80;;;;;;5056886;28;20457;-86
2021/05/04 16:40:21;;;;;;;3.20;2.67;;;13.00;51.20;;;;;;5052654;28;20461;-86
2021/05/04 16:43:02;;;;;;;3.07;1.73;;;12.80;52.30;;;;;;5045664;28;20566;-86
2021/05/04 16:45:45;;;;;;;2.10;1.93;;;12.70;52.70;;;;;;5059791;28;20438;-85
2021/05/04 16:48:20;;;;;;;3.50;2.40;;;12.70;53.20;;;;;;5060889;28;20461;-82
2021/05/04 16:50:52;;;;;;;2.53;2.33;;;12.70;53.60;;;;;;5059267;28;20445;-85
2021/05/04 16:53:30;;;;;;;2.60;2.40;;;12.80;53.90;;;;;;5063357;28;20525;-83
2021/05/04 16:56:05;;;;;;;2.50;2.13;;;12.80;54.30;;;;;;5061096;28;20522;-84
2021/05/04 16:58:46;;;;;;;1.50;1.40;;;12.70;54.90;;;;;;5063492;28;20515;-82
2021/05/04 17:01:20;;;;;;;8.20;2.93;;;12.60;54.70;;;;;;5055559;28;20453;-83
2021/05/04 17:03:55;;;;;;;7.10;2.70;;;12.60;54.90;;;;;;5069006;28;20449;-86
2021/05/04 17:06:29;;;;;;;4.90;2.50;;;12.50;54.80;;;;;;5070532;28;20445;-86
2021/05/04 17:09:26;;;;;;;4.40;3.40;;;12.60;55.30;;;;;;5063946;28;20541;-82
2021/05/04 17:12:01;;;;;;;4.70;2.53;;;12.60;55.10;;;;;;5055670;28;20493;-83
2021/05/04 17:14:36;;;;;;;3.20;2.90;;;12.50;55.70;;;;;;5056915;28;20533;-85
2021/05/04 17:17:08;;;;;;;3.93;2.80;;;12.40;56.20;;;;;;5060310;28;20438;-86